sensor_id;sensor_type;location;lat;lon;timestamp;temperature;humidity
38514;DHT22;24282;48.400;10.808;2024-01-06T00:01:48;5.70;90.60
38514;DHT22;24282;48.400;10.808;2024-01-06T00:04:14;5.70;90.60
38514;DHT22;24282;48.400;10.808;2024-01-06T00:06:39;5.70;90.60
38514;DHT22;24282;48.400;10.808;2024-01-06T00:09:05;5.70;90.60
38514;DHT22;24282;48.400;10.808;2024-01-06T00:11:31;5.70;90.60
38514;DHT22;24282;48.400;10.808;2024-01-06T00:13:57;5.70;90.60
38514;DHT22;24282;48.400;10.808;2024-01-06T00:16:23;5.70;90.60
38514;DHT22;24282;48.400;10.808;2024-01-06T00:18:48;5.60;90.60
38514;DHT22;24282;48.400;10.808;2024-01-06T00:21:14;5.70;90.70
38514;DHT22;24282;48.400;10.808;2024-01-06T00:23:40;5.70;90.70
38514;DHT22;24282;48.400;10.808;2024-01-06T00:26:07;5.70;90.70
38514;DHT22;24282;48.400;10.808;2024-01-06T00:28:33;5.70;90.70
38514;DHT22;24282;48.400;10.808;2024-01-06T00:30:59;5.70;90.80
38514;DHT22;24282;48.400;10.808;2024-01-06T00:33:25;5.70;90.80
38514;DHT22;24282;48.400;10.808;2024-01-06T00:35:50;5.70;90.80
38514;DHT22;24282;48.400;10.808;2024-01-06T00:38:16;5.70;90.70
38514;DHT22;24282;48.400;10.808;2024-01-06T00:40:42;5.70;90.70
38514;DHT22;24282;48.400;10.808;2024-01-06T00:43:08;5.70;90.70
38514;DHT22;24282;48.400;10.808;2024-01-06T00:45:33;5.70;90.70
38514;DHT22;24282;48.400;10.808;2024-01-06T00:47:59;5.70;90.70
38514;DHT22;24282;48.400;10.808;2024-01-06T00:50:25;5.70;90.80
38514;DHT22;24282;48.400;10.808;2024-01-06T00:52:50;5.70;90.70
38514;DHT22;24282;48.400;10.808;2024-01-06T00:55:22;5.70;90.70
38514;DHT22;24282;48.400;10.808;2024-01-06T00:57:48;5.70;90.70
38514;DHT22;24282;48.400;10.808;2024-01-06T01:00:14;5.70;90.70
38514;DHT22;24282;48.400;10.808;2024-01-06T01:02:40;5.70;90.70
38514;DHT22;24282;48.400;10.808;2024-01-06T01:05:06;5.70;90.70
38514;DHT22;24282;48.400;10.808;2024-01-06T01:07:35;5.70;90.70
38514;DHT22;24282;48.400;10.808;2024-01-06T01:10:01;5.70;90.80
38514;DHT22;24282;48.400;10.808;2024-01-06T01:12:27;5.70;90.90
38514;DHT22;24282;48.400;10.808;2024-01-06T01:14:53;5.70;90.90
38514;DHT22;24282;48.400;10.808;2024-01-06T01:17:19;5.70;91.00
38514;DHT22;24282;48.400;10.808;2024-01-06T01:19:45;5.70;91.00
38514;DHT22;24282;48.400;10.808;2024-01-06T01:22:12;5.70;91.00
38514;DHT22;24282;48.400;10.808;2024-01-06T01:24:37;5.70;91.10
38514;DHT22;24282;48.400;10.808;2024-01-06T01:27:03;5.70;91.10
38514;DHT22;24282;48.400;10.808;2024-01-06T01:29:29;5.70;91.10
38514;DHT22;24282;48.400;10.808;2024-01-06T01:31:55;5.70;91.10
38514;DHT22;24282;48.400;10.808;2024-01-06T01:34:21;5.70;91.10
38514;DHT22;24282;48.400;10.808;2024-01-06T01:36:47;5.70;91.10
38514;DHT22;24282;48.400;10.808;2024-01-06T01:39:12;5.70;91.10
38514;DHT22;24282;48.400;10.808;2024-01-06T01:41:39;5.70;91.10
38514;DHT22;24282;48.400;10.808;2024-01-06T01:44:05;5.70;91.20
38514;DHT22;24282;48.400;10.808;2024-01-06T01:46:31;5.70;91.20
38514;DHT22;24282;48.400;10.808;2024-01-06T01:48:59;5.80;91.20
38514;DHT22;24282;48.400;10.808;2024-01-06T01:51:28;5.80;91.10
38514;DHT22;24282;48.400;10.808;2024-01-06T01:53:55;5.80;91.10
38514;DHT22;24282;48.400;10.808;2024-01-06T01:56:21;5.80;91.10
38514;DHT22;24282;48.400;10.808;2024-01-06T01:58:47;5.80;91.10
38514;DHT22;24282;48.400;10.808;2024-01-06T02:01:13;5.80;91.10
38514;DHT22;24282;48.400;10.808;2024-01-06T02:03:41;5.90;91.10
38514;DHT22;24282;48.400;10.808;2024-01-06T02:06:09;5.80;91.10
38514;DHT22;24282;48.400;10.808;2024-01-06T02:08:35;5.80;91.00
38514;DHT22;24282;48.400;10.808;2024-01-06T02:11:01;5.80;90.90
38514;DHT22;24282;48.400;10.808;2024-01-06T02:13:37;5.90;90.90
38514;DHT22;24282;48.400;10.808;2024-01-06T02:16:04;5.80;90.80
38514;DHT22;24282;48.400;10.808;2024-01-06T02:18:31;5.90;90.70
38514;DHT22;24282;48.400;10.808;2024-01-06T02:20:59;5.80;90.70
38514;DHT22;24282;48.400;10.808;2024-01-06T02:23:25;5.80;90.60
38514;DHT22;24282;48.400;10.808;2024-01-06T02:25:51;5.80;90.60
38514;DHT22;24282;48.400;10.808;2024-01-06T02:28:17;5.80;90.70
38514;DHT22;24282;48.400;10.808;2024-01-06T02:30:43;5.80;90.60
38514;DHT22;24282;48.400;10.808;2024-01-06T02:33:09;5.80;90.30
38514;DHT22;24282;48.400;10.808;2024-01-06T02:35:35;5.80;90.10
38514;DHT22;24282;48.400;10.808;2024-01-06T02:38:01;5.80;90.10
38514;DHT22;24282;48.400;10.808;2024-01-06T02:40:27;5.80;89.90
38514;DHT22;24282;48.400;10.808;2024-01-06T02:42:53;5.80;89.90
38514;DHT22;24282;48.400;10.808;2024-01-06T02:45:19;5.80;89.80
38514;DHT22;24282;48.400;10.808;2024-01-06T02:47:44;5.80;89.90
38514;DHT22;24282;48.400;10.808;2024-01-06T02:50:10;5.80;89.70
38514;DHT22;24282;48.400;10.808;2024-01-06T02:52:36;5.70;89.50
38514;DHT22;24282;48.400;10.808;2024-01-06T02:55:02;5.70;89.50
38514;DHT22;24282;48.400;10.808;2024-01-06T02:57:31;5.70;89.50
38514;DHT22;24282;48.400;10.808;2024-01-06T02:59:56;5.70;89.40
38514;DHT22;24282;48.400;10.808;2024-01-06T03:02:22;5.70;89.40
38514;DHT22;24282;48.400;10.808;2024-01-06T03:04:48;5.80;89.20
38514;DHT22;24282;48.400;10.808;2024-01-06T03:07:14;5.70;89.00
38514;DHT22;24282;48.400;10.808;2024-01-06T03:09:40;5.70;88.90
38514;DHT22;24282;48.400;10.808;2024-01-06T03:12:06;5.70;88.60
38514;DHT22;24282;48.400;10.808;2024-01-06T03:14:36;5.60;88.60
38514;DHT22;24282;48.400;10.808;2024-01-06T03:17:01;5.70;88.50
38514;DHT22;24282;48.400;10.808;2024-01-06T03:19:28;5.60;88.50
38514;DHT22;24282;48.400;10.808;2024-01-06T03:21:54;5.60;88.50
38514;DHT22;24282;48.400;10.808;2024-01-06T03:24:25;5.60;87.70
38514;DHT22;24282;48.400;10.808;2024-01-06T03:26:51;5.60;87.70
38514;DHT22;24282;48.400;10.808;2024-01-06T03:29:16;5.50;87.70
38514;DHT22;24282;48.400;10.808;2024-01-06T03:31:43;5.50;87.80
38514;DHT22;24282;48.400;10.808;2024-01-06T03:34:09;5.50;88.00
38514;DHT22;24282;48.400;10.808;2024-01-06T03:36:37;5.50;87.90
38514;DHT22;24282;48.400;10.808;2024-01-06T03:39:03;5.50;87.70
38514;DHT22;24282;48.400;10.808;2024-01-06T03:41:28;5.50;87.90
38514;DHT22;24282;48.400;10.808;2024-01-06T03:43:54;5.50;87.90
38514;DHT22;24282;48.400;10.808;2024-01-06T03:46:20;5.50;87.70
38514;DHT22;24282;48.400;10.808;2024-01-06T03:48:46;5.40;87.90
38514;DHT22;24282;48.400;10.808;2024-01-06T03:51:12;5.40;88.20
38514;DHT22;24282;48.400;10.808;2024-01-06T03:53:38;5.40;88.30
38514;DHT22;24282;48.400;10.808;2024-01-06T03:56:04;5.40;88.50
38514;DHT22;24282;48.400;10.808;2024-01-06T03:58:30;5.40;88.40
38514;DHT22;24282;48.400;10.808;2024-01-06T04:00:56;5.40;88.00
38514;DHT22;24282;48.400;10.808;2024-01-06T04:03:21;5.40;87.60
38514;DHT22;24282;48.400;10.808;2024-01-06T04:05:47;5.40;86.80
38514;DHT22;24282;48.400;10.808;2024-01-06T04:08:13;5.30;86.60
38514;DHT22;24282;48.400;10.808;2024-01-06T04:10:39;5.30;87.10
38514;DHT22;24282;48.400;10.808;2024-01-06T04:13:07;5.40;87.20
38514;DHT22;24282;48.400;10.808;2024-01-06T04:15:33;5.30;86.80
38514;DHT22;24282;48.400;10.808;2024-01-06T04:18:02;5.30;86.80
38514;DHT22;24282;48.400;10.808;2024-01-06T04:20:29;5.30;87.10
38514;DHT22;24282;48.400;10.808;2024-01-06T04:22:55;5.30;87.10
38514;DHT22;24282;48.400;10.808;2024-01-06T04:25:20;5.30;87.20
38514;DHT22;24282;48.400;10.808;2024-01-06T04:27:47;5.20;87.40
38514;DHT22;24282;48.400;10.808;2024-01-06T04:30:14;5.20;87.80
38514;DHT22;24282;48.400;10.808;2024-01-06T04:32:41;5.20;88.00
38514;DHT22;24282;48.400;10.808;2024-01-06T04:35:07;5.10;88.20
38514;DHT22;24282;48.400;10.808;2024-01-06T04:37:32;5.20;88.10
38514;DHT22;24282;48.400;10.808;2024-01-06T04:39:58;5.10;88.10
38514;DHT22;24282;48.400;10.808;2024-01-06T04:42:25;5.10;87.90
38514;DHT22;24282;48.400;10.808;2024-01-06T04:44:51;5.10;88.00
38514;DHT22;24282;48.400;10.808;2024-01-06T04:47:17;5.10;88.20
38514;DHT22;24282;48.400;10.808;2024-01-06T04:49:43;5.10;88.40
38514;DHT22;24282;48.400;10.808;2024-01-06T04:52:10;5.00;88.60
38514;DHT22;24282;48.400;10.808;2024-01-06T04:54:36;5.00;88.70
38514;DHT22;24282;48.400;10.808;2024-01-06T04:57:01;5.00;88.70
38514;DHT22;24282;48.400;10.808;2024-01-06T04:59:27;5.00;88.90
38514;DHT22;24282;48.400;10.808;2024-01-06T05:01:53;5.00;88.90
38514;DHT22;24282;48.400;10.808;2024-01-06T05:04:19;5.00;89.10
38514;DHT22;24282;48.400;10.808;2024-01-06T05:06:45;5.00;89.10
38514;DHT22;24282;48.400;10.808;2024-01-06T05:09:11;5.00;89.10
38514;DHT22;24282;48.400;10.808;2024-01-06T05:11:37;4.90;89.10
38514;DHT22;24282;48.400;10.808;2024-01-06T05:14:02;4.90;89.10
38514;DHT22;24282;48.400;10.808;2024-01-06T05:16:28;4.90;89.20
38514;DHT22;24282;48.400;10.808;2024-01-06T05:18:54;4.90;89.30
38514;DHT22;24282;48.400;10.808;2024-01-06T05:21:20;4.90;89.30
38514;DHT22;24282;48.400;10.808;2024-01-06T05:23:46;4.90;89.40
38514;DHT22;24282;48.400;10.808;2024-01-06T05:26:11;4.90;89.10
38514;DHT22;24282;48.400;10.808;2024-01-06T05:28:39;4.90;88.90
38514;DHT22;24282;48.400;10.808;2024-01-06T05:31:06;4.90;88.80
38514;DHT22;24282;48.400;10.808;2024-01-06T05:33:31;4.90;88.80
38514;DHT22;24282;48.400;10.808;2024-01-06T05:35:57;4.90;88.80
38514;DHT22;24282;48.400;10.808;2024-01-06T05:38:23;4.80;88.90
38514;DHT22;24282;48.400;10.808;2024-01-06T05:40:49;4.90;89.00
38514;DHT22;24282;48.400;10.808;2024-01-06T05:43:15;4.80;89.00
38514;DHT22;24282;48.400;10.808;2024-01-06T05:45:40;4.80;88.90
38514;DHT22;24282;48.400;10.808;2024-01-06T05:48:10;4.80;88.90
38514;DHT22;24282;48.400;10.808;2024-01-06T05:50:40;4.90;88.80
38514;DHT22;24282;48.400;10.808;2024-01-06T05:53:07;4.80;88.80
38514;DHT22;24282;48.400;10.808;2024-01-06T05:55:33;4.80;88.90
38514;DHT22;24282;48.400;10.808;2024-01-06T05:57:59;4.80;88.90
38514;DHT22;24282;48.400;10.808;2024-01-06T06:00:25;4.80;88.80
38514;DHT22;24282;48.400;10.808;2024-01-06T06:02:51;4.80;88.70
38514;DHT22;24282;48.400;10.808;2024-01-06T06:05:16;4.80;88.70
38514;DHT22;24282;48.400;10.808;2024-01-06T06:07:42;4.80;88.60
38514;DHT22;24282;48.400;10.808;2024-01-06T06:10:10;4.80;88.50
38514;DHT22;24282;48.400;10.808;2024-01-06T06:12:37;4.80;88.60
38514;DHT22;24282;48.400;10.808;2024-01-06T06:15:03;4.80;88.70
38514;DHT22;24282;48.400;10.808;2024-01-06T06:17:30;4.70;88.90
38514;DHT22;24282;48.400;10.808;2024-01-06T06:19:57;4.70;88.90
38514;DHT22;24282;48.400;10.808;2024-01-06T06:22:23;4.70;88.90
38514;DHT22;24282;48.400;10.808;2024-01-06T06:24:49;4.70;88.90
38514;DHT22;24282;48.400;10.808;2024-01-06T06:27:15;4.70;88.80
38514;DHT22;24282;48.400;10.808;2024-01-06T06:29:41;4.80;88.90
38514;DHT22;24282;48.400;10.808;2024-01-06T06:32:06;4.70;88.80
38514;DHT22;24282;48.400;10.808;2024-01-06T06:34:33;4.70;88.90
38514;DHT22;24282;48.400;10.808;2024-01-06T06:36:59;4.70;89.10
38514;DHT22;24282;48.400;10.808;2024-01-06T06:39:24;4.70;89.10
38514;DHT22;24282;48.400;10.808;2024-01-06T06:41:52;4.70;89.10
38514;DHT22;24282;48.400;10.808;2024-01-06T06:44:18;4.70;89.20
38514;DHT22;24282;48.400;10.808;2024-01-06T06:46:44;4.70;89.30
38514;DHT22;24282;48.400;10.808;2024-01-06T06:49:09;4.70;89.20
38514;DHT22;24282;48.400;10.808;2024-01-06T06:51:35;4.70;89.20
38514;DHT22;24282;48.400;10.808;2024-01-06T06:54:01;4.70;89.20
38514;DHT22;24282;48.400;10.808;2024-01-06T06:56:27;4.70;89.10
38514;DHT22;24282;48.400;10.808;2024-01-06T06:58:52;4.70;89.10
38514;DHT22;24282;48.400;10.808;2024-01-06T07:01:18;4.70;89.00
38514;DHT22;24282;48.400;10.808;2024-01-06T07:03:44;4.70;89.00
38514;DHT22;24282;48.400;10.808;2024-01-06T07:06:13;4.70;89.10
38514;DHT22;24282;48.400;10.808;2024-01-06T07:08:40;4.70;89.10
38514;DHT22;24282;48.400;10.808;2024-01-06T07:11:07;4.70;89.20
38514;DHT22;24282;48.400;10.808;2024-01-06T07:13:33;4.70;89.20
38514;DHT22;24282;48.400;10.808;2024-01-06T07:15:59;4.70;89.20
38514;DHT22;24282;48.400;10.808;2024-01-06T07:18:25;4.70;89.30
38514;DHT22;24282;48.400;10.808;2024-01-06T07:20:51;4.70;89.20
38514;DHT22;24282;48.400;10.808;2024-01-06T07:23:17;4.70;89.30
38514;DHT22;24282;48.400;10.808;2024-01-06T07:25:43;4.70;89.40
38514;DHT22;24282;48.400;10.808;2024-01-06T07:28:08;4.70;89.40
38514;DHT22;24282;48.400;10.808;2024-01-06T07:30:34;4.70;89.40
38514;DHT22;24282;48.400;10.808;2024-01-06T07:33:00;4.70;89.50
38514;DHT22;24282;48.400;10.808;2024-01-06T07:35:26;4.70;89.50
38514;DHT22;24282;48.400;10.808;2024-01-06T07:37:51;4.70;89.50
38514;DHT22;24282;48.400;10.808;2024-01-06T07:40:18;4.70;89.50
38514;DHT22;24282;48.400;10.808;2024-01-06T07:42:44;4.70;89.50
38514;DHT22;24282;48.400;10.808;2024-01-06T07:45:10;4.70;89.50
38514;DHT22;24282;48.400;10.808;2024-01-06T07:47:36;4.70;89.50
38514;DHT22;24282;48.400;10.808;2024-01-06T07:50:02;4.70;89.50
38514;DHT22;24282;48.400;10.808;2024-01-06T07:52:30;4.70;89.60
38514;DHT22;24282;48.400;10.808;2024-01-06T07:54:56;4.70;89.70
38514;DHT22;24282;48.400;10.808;2024-01-06T07:57:22;4.70;89.80
38514;DHT22;24282;48.400;10.808;2024-01-06T07:59:47;4.80;89.70
38514;DHT22;24282;48.400;10.808;2024-01-06T08:02:13;4.80;89.60
38514;DHT22;24282;48.400;10.808;2024-01-06T08:04:39;4.80;89.50
38514;DHT22;24282;48.400;10.808;2024-01-06T08:07:05;4.80;89.50
38514;DHT22;24282;48.400;10.808;2024-01-06T08:09:30;4.80;89.50
38514;DHT22;24282;48.400;10.808;2024-01-06T08:11:56;4.80;89.50
38514;DHT22;24282;48.400;10.808;2024-01-06T08:14:22;4.80;89.40
38514;DHT22;24282;48.400;10.808;2024-01-06T08:16:47;4.80;89.40
38514;DHT22;24282;48.400;10.808;2024-01-06T08:19:13;4.80;89.40
38514;DHT22;24282;48.400;10.808;2024-01-06T08:21:39;4.80;89.50
38514;DHT22;24282;48.400;10.808;2024-01-06T08:24:05;4.80;89.50
38514;DHT22;24282;48.400;10.808;2024-01-06T08:26:31;4.80;89.60
38514;DHT22;24282;48.400;10.808;2024-01-06T08:28:57;4.80;89.60
38514;DHT22;24282;48.400;10.808;2024-01-06T08:31:22;4.90;89.60
38514;DHT22;24282;48.400;10.808;2024-01-06T08:33:48;4.90;89.60
38514;DHT22;24282;48.400;10.808;2024-01-06T08:36:14;4.90;89.60
38514;DHT22;24282;48.400;10.808;2024-01-06T08:38:40;4.90;89.70
38514;DHT22;24282;48.400;10.808;2024-01-06T08:41:05;4.90;89.70
38514;DHT22;24282;48.400;10.808;2024-01-06T08:43:31;4.90;89.60
38514;DHT22;24282;48.400;10.808;2024-01-06T08:45:57;4.90;89.50
38514;DHT22;24282;48.400;10.808;2024-01-06T08:48:22;5.00;89.30
38514;DHT22;24282;48.400;10.808;2024-01-06T08:50:48;5.00;89.20
38514;DHT22;24282;48.400;10.808;2024-01-06T08:53:14;4.90;89.30
38514;DHT22;24282;48.400;10.808;2024-01-06T08:55:41;5.00;89.40
38514;DHT22;24282;48.400;10.808;2024-01-06T08:58:06;5.00;89.40
38514;DHT22;24282;48.400;10.808;2024-01-06T09:00:32;5.00;89.50
38514;DHT22;24282;48.400;10.808;2024-01-06T09:02:58;5.00;89.60
38514;DHT22;24282;48.400;10.808;2024-01-06T09:05:23;5.00;89.50
38514;DHT22;24282;48.400;10.808;2024-01-06T09:07:49;5.00;89.40
38514;DHT22;24282;48.400;10.808;2024-01-06T09:10:18;5.00;89.30
38514;DHT22;24282;48.400;10.808;2024-01-06T09:12:44;5.00;89.30
38514;DHT22;24282;48.400;10.808;2024-01-06T09:15:10;5.00;89.40
38514;DHT22;24282;48.400;10.808;2024-01-06T09:17:36;5.00;89.20
38514;DHT22;24282;48.400;10.808;2024-01-06T09:20:02;5.00;88.90
38514;DHT22;24282;48.400;10.808;2024-01-06T09:22:29;5.00;88.70
38514;DHT22;24282;48.400;10.808;2024-01-06T09:24:54;5.00;88.70
38514;DHT22;24282;48.400;10.808;2024-01-06T09:27:20;5.00;88.90
38514;DHT22;24282;48.400;10.808;2024-01-06T09:29:46;5.00;89.10
38514;DHT22;24282;48.400;10.808;2024-01-06T09:32:12;5.00;89.00
38514;DHT22;24282;48.400;10.808;2024-01-06T09:34:38;5.00;89.10
38514;DHT22;24282;48.400;10.808;2024-01-06T09:37:04;5.00;88.90
38514;DHT22;24282;48.400;10.808;2024-01-06T09:39:30;5.00;88.90
38514;DHT22;24282;48.400;10.808;2024-01-06T09:41:57;5.00;89.00
38514;DHT22;24282;48.400;10.808;2024-01-06T09:44:23;5.00;89.00
38514;DHT22;24282;48.400;10.808;2024-01-06T09:46:50;5.00;89.00
38514;DHT22;24282;48.400;10.808;2024-01-06T09:49:19;5.00;89.00
38514;DHT22;24282;48.400;10.808;2024-01-06T09:51:49;5.00;89.20
38514;DHT22;24282;48.400;10.808;2024-01-06T09:54:22;5.00;89.40
38514;DHT22;24282;48.400;10.808;2024-01-06T09:56:49;5.00;89.50
38514;DHT22;24282;48.400;10.808;2024-01-06T09:59:15;5.00;89.50
38514;DHT22;24282;48.400;10.808;2024-01-06T10:01:41;5.10;89.60
38514;DHT22;24282;48.400;10.808;2024-01-06T10:04:07;5.10;89.70
38514;DHT22;24282;48.400;10.808;2024-01-06T10:06:33;5.10;89.60
38514;DHT22;24282;48.400;10.808;2024-01-06T10:08:59;5.10;89.60
38514;DHT22;24282;48.400;10.808;2024-01-06T10:11:25;5.10;89.50
38514;DHT22;24282;48.400;10.808;2024-01-06T10:13:52;5.20;89.50
38514;DHT22;24282;48.400;10.808;2024-01-06T10:16:19;5.20;89.40
38514;DHT22;24282;48.400;10.808;2024-01-06T10:18:45;5.20;89.40
38514;DHT22;24282;48.400;10.808;2024-01-06T10:21:11;5.20;89.40
38514;DHT22;24282;48.400;10.808;2024-01-06T10:23:36;5.20;89.30
38514;DHT22;24282;48.400;10.808;2024-01-06T10:26:02;5.30;89.30
38514;DHT22;24282;48.400;10.808;2024-01-06T10:28:29;5.30;89.10
38514;DHT22;24282;48.400;10.808;2024-01-06T10:30:57;5.30;89.00
38514;DHT22;24282;48.400;10.808;2024-01-06T10:33:25;5.30;89.10
38514;DHT22;24282;48.400;10.808;2024-01-06T10:35:52;5.30;89.10
38514;DHT22;24282;48.400;10.808;2024-01-06T10:38:20;5.30;89.10
38514;DHT22;24282;48.400;10.808;2024-01-06T10:41:04;5.30;89.10
38514;DHT22;24282;48.400;10.808;2024-01-06T10:43:34;5.30;89.20
38514;DHT22;24282;48.400;10.808;2024-01-06T10:46:07;5.30;89.30
38514;DHT22;24282;48.400;10.808;2024-01-06T10:48:37;5.30;89.40
38514;DHT22;24282;48.400;10.808;2024-01-06T10:51:09;5.30;89.40
38514;DHT22;24282;48.400;10.808;2024-01-06T10:53:35;5.40;89.40
38514;DHT22;24282;48.400;10.808;2024-01-06T10:56:04;5.40;89.30
38514;DHT22;24282;48.400;10.808;2024-01-06T10:58:30;5.40;88.70
38514;DHT22;24282;48.400;10.808;2024-01-06T11:00:58;5.50;88.50
38514;DHT22;24282;48.400;10.808;2024-01-06T11:03:24;5.50;88.50
38514;DHT22;24282;48.400;10.808;2024-01-06T11:05:50;5.50;88.30
38514;DHT22;24282;48.400;10.808;2024-01-06T11:08:19;5.50;88.30
38514;DHT22;24282;48.400;10.808;2024-01-06T11:10:47;5.50;88.30
38514;DHT22;24282;48.400;10.808;2024-01-06T11:13:14;5.50;88.00
38514;DHT22;24282;48.400;10.808;2024-01-06T11:15:43;5.50;87.40
38514;DHT22;24282;48.400;10.808;2024-01-06T11:18:09;5.50;86.90
38514;DHT22;24282;48.400;10.808;2024-01-06T11:20:35;5.50;87.10
38514;DHT22;24282;48.400;10.808;2024-01-06T11:23:20;5.50;87.70
38514;DHT22;24282;48.400;10.808;2024-01-06T11:25:46;5.40;88.10
38514;DHT22;24282;48.400;10.808;2024-01-06T11:28:12;5.40;88.40
38514;DHT22;24282;48.400;10.808;2024-01-06T11:30:38;5.40;88.60
38514;DHT22;24282;48.400;10.808;2024-01-06T11:33:05;5.40;88.40
38514;DHT22;24282;48.400;10.808;2024-01-06T11:35:30;5.40;88.30
38514;DHT22;24282;48.400;10.808;2024-01-06T11:38:02;5.40;88.40
38514;DHT22;24282;48.400;10.808;2024-01-06T11:40:34;5.40;88.40
38514;DHT22;24282;48.400;10.808;2024-01-06T11:43:04;5.30;88.60
38514;DHT22;24282;48.400;10.808;2024-01-06T11:45:32;5.40;88.60
38514;DHT22;24282;48.400;10.808;2024-01-06T11:47:59;5.30;88.50
38514;DHT22;24282;48.400;10.808;2024-01-06T11:50:26;5.30;88.50
38514;DHT22;24282;48.400;10.808;2024-01-06T11:52:53;5.30;88.50
38514;DHT22;24282;48.400;10.808;2024-01-06T11:55:19;5.30;88.50
38514;DHT22;24282;48.400;10.808;2024-01-06T11:57:45;5.40;88.00
38514;DHT22;24282;48.400;10.808;2024-01-06T12:00:13;5.40;87.80
38514;DHT22;24282;48.400;10.808;2024-01-06T12:02:42;5.30;87.70
38514;DHT22;24282;48.400;10.808;2024-01-06T12:05:17;5.40;87.80
38514;DHT22;24282;48.400;10.808;2024-01-06T12:07:54;5.30;87.80
38514;DHT22;24282;48.400;10.808;2024-01-06T12:10:21;5.30;88.00
38514;DHT22;24282;48.400;10.808;2024-01-06T12:15:25;5.20;88.10
38514;DHT22;24282;48.400;10.808;2024-01-06T12:17:51;5.30;88.00
38514;DHT22;24282;48.400;10.808;2024-01-06T12:20:17;5.20;88.00
38514;DHT22;24282;48.400;10.808;2024-01-06T12:22:44;5.20;87.90
38514;DHT22;24282;48.400;10.808;2024-01-06T12:25:10;5.20;87.90
38514;DHT22;24282;48.400;10.808;2024-01-06T12:27:36;5.20;88.10
38514;DHT22;24282;48.400;10.808;2024-01-06T12:30:15;5.20;88.10
38514;DHT22;24282;48.400;10.808;2024-01-06T12:32:45;5.20;88.00
38514;DHT22;24282;48.400;10.808;2024-01-06T12:35:13;5.20;88.20
38514;DHT22;24282;48.400;10.808;2024-01-06T12:37:40;5.20;88.50
38514;DHT22;24282;48.400;10.808;2024-01-06T12:40:08;5.20;88.60
38514;DHT22;24282;48.400;10.808;2024-01-06T12:42:34;5.20;88.60
38514;DHT22;24282;48.400;10.808;2024-01-06T12:45:01;5.20;88.70
38514;DHT22;24282;48.400;10.808;2024-01-06T12:47:27;5.20;88.60
38514;DHT22;24282;48.400;10.808;2024-01-06T12:49:53;5.20;88.50
38514;DHT22;24282;48.400;10.808;2024-01-06T12:52:19;5.20;88.70
38514;DHT22;24282;48.400;10.808;2024-01-06T12:54:45;5.20;88.90
38514;DHT22;24282;48.400;10.808;2024-01-06T12:57:11;5.20;89.10
38514;DHT22;24282;48.400;10.808;2024-01-06T12:59:37;5.20;89.00
38514;DHT22;24282;48.400;10.808;2024-01-06T13:02:03;5.20;88.90
38514;DHT22;24282;48.400;10.808;2024-01-06T13:04:29;5.20;88.90
38514;DHT22;24282;48.400;10.808;2024-01-06T13:06:54;5.20;89.00
38514;DHT22;24282;48.400;10.808;2024-01-06T13:09:20;5.30;89.00
38514;DHT22;24282;48.400;10.808;2024-01-06T13:11:49;5.30;88.80
38514;DHT22;24282;48.400;10.808;2024-01-06T13:14:16;5.30;88.50
38514;DHT22;24282;48.400;10.808;2024-01-06T13:16:42;5.30;88.40
38514;DHT22;24282;48.400;10.808;2024-01-06T13:19:08;5.30;88.70
38514;DHT22;24282;48.400;10.808;2024-01-06T13:21:34;5.30;88.60
38514;DHT22;24282;48.400;10.808;2024-01-06T13:24:01;5.30;88.20
38514;DHT22;24282;48.400;10.808;2024-01-06T13:26:29;5.30;88.10
38514;DHT22;24282;48.400;10.808;2024-01-06T13:28:55;5.30;87.90
38514;DHT22;24282;48.400;10.808;2024-01-06T13:31:21;5.40;87.50
38514;DHT22;24282;48.400;10.808;2024-01-06T13:33:47;5.40;87.20
38514;DHT22;24282;48.400;10.808;2024-01-06T13:36:12;5.30;87.60
38514;DHT22;24282;48.400;10.808;2024-01-06T13:38:38;5.40;87.90
38514;DHT22;24282;48.400;10.808;2024-01-06T13:41:05;5.30;88.00
38514;DHT22;24282;48.400;10.808;2024-01-06T13:43:30;5.30;88.10
38514;DHT22;24282;48.400;10.808;2024-01-06T13:45:57;5.30;87.90
38514;DHT22;24282;48.400;10.808;2024-01-06T13:48:23;5.30;88.10
38514;DHT22;24282;48.400;10.808;2024-01-06T13:50:49;5.20;88.30
38514;DHT22;24282;48.400;10.808;2024-01-06T13:53:16;5.20;88.70
38514;DHT22;24282;48.400;10.808;2024-01-06T13:55:41;5.20;88.80
38514;DHT22;24282;48.400;10.808;2024-01-06T13:58:07;5.30;88.70
38514;DHT22;24282;48.400;10.808;2024-01-06T14:00:35;5.30;88.30
38514;DHT22;24282;48.400;10.808;2024-01-06T14:03:02;5.20;88.40
38514;DHT22;24282;48.400;10.808;2024-01-06T14:05:28;5.20;88.40
38514;DHT22;24282;48.400;10.808;2024-01-06T14:07:54;5.30;88.10
38514;DHT22;24282;48.400;10.808;2024-01-06T14:10:20;5.20;87.50
38514;DHT22;24282;48.400;10.808;2024-01-06T14:12:45;5.30;87.50
38514;DHT22;24282;48.400;10.808;2024-01-06T14:15:11;5.20;87.70
38514;DHT22;24282;48.400;10.808;2024-01-06T14:17:38;5.20;88.00
38514;DHT22;24282;48.400;10.808;2024-01-06T14:20:05;5.20;88.20
38514;DHT22;24282;48.400;10.808;2024-01-06T14:22:31;5.20;88.20
38514;DHT22;24282;48.400;10.808;2024-01-06T14:24:57;5.20;88.30
38514;DHT22;24282;48.400;10.808;2024-01-06T14:27:22;5.20;87.50
38514;DHT22;24282;48.400;10.808;2024-01-06T14:29:48;5.20;86.80
38514;DHT22;24282;48.400;10.808;2024-01-06T14:32:14;5.10;86.90
38514;DHT22;24282;48.400;10.808;2024-01-06T14:34:40;5.10;87.30
38514;DHT22;24282;48.400;10.808;2024-01-06T14:37:06;5.10;87.50
38514;DHT22;24282;48.400;10.808;2024-01-06T14:39:31;5.10;87.50
38514;DHT22;24282;48.400;10.808;2024-01-06T14:41:57;5.00;87.40
38514;DHT22;24282;48.400;10.808;2024-01-06T14:44:23;5.00;87.60
38514;DHT22;24282;48.400;10.808;2024-01-06T14:46:49;5.00;87.90
38514;DHT22;24282;48.400;10.808;2024-01-06T14:49:16;5.00;87.70
38514;DHT22;24282;48.400;10.808;2024-01-06T14:51:42;5.00;87.80
38514;DHT22;24282;48.400;10.808;2024-01-06T14:54:10;5.00;88.10
38514;DHT22;24282;48.400;10.808;2024-01-06T14:56:39;5.00;88.30
38514;DHT22;24282;48.400;10.808;2024-01-06T14:59:07;5.00;88.60
38514;DHT22;24282;48.400;10.808;2024-01-06T15:01:33;5.00;88.70
38514;DHT22;24282;48.400;10.808;2024-01-06T15:03:58;5.00;88.80
38514;DHT22;24282;48.400;10.808;2024-01-06T15:06:24;5.00;88.90
38514;DHT22;24282;48.400;10.808;2024-01-06T15:08:50;5.00;88.90
38514;DHT22;24282;48.400;10.808;2024-01-06T15:11:16;4.90;89.00
38514;DHT22;24282;48.400;10.808;2024-01-06T15:13:42;4.90;89.00
38514;DHT22;24282;48.400;10.808;2024-01-06T15:16:07;4.90;89.20
38514;DHT22;24282;48.400;10.808;2024-01-06T15:18:33;4.90;89.20
38514;DHT22;24282;48.400;10.808;2024-01-06T15:21:00;4.90;89.30
38514;DHT22;24282;48.400;10.808;2024-01-06T15:23:26;4.90;89.40
38514;DHT22;24282;48.400;10.808;2024-01-06T15:25:52;4.90;89.40
38514;DHT22;24282;48.400;10.808;2024-01-06T15:28:18;5.00;89.30